createdAt,value
2023-02-27T00:01:01.103Z,4.40
2023-02-27T00:03:30.952Z,3.20
2023-02-27T00:05:59.462Z,5.90
2023-02-27T00:08:27.917Z,6.13
2023-02-27T00:10:56.527Z,3.37
2023-02-27T00:13:24.883Z,2.53
2023-02-27T00:15:53.527Z,3.53
2023-02-27T00:18:22.096Z,4.50
2023-02-27T00:20:52.709Z,3.53
2023-02-27T00:23:21.222Z,2.30
2023-02-27T00:25:49.863Z,2.20
2023-02-27T00:28:18.256Z,2.13
2023-02-27T00:30:46.717Z,2.10
2023-02-27T00:33:15.614Z,2.20
2023-02-27T00:35:44.046Z,2.20
2023-02-27T00:38:13.804Z,2.40
2023-02-27T00:40:42.471Z,2.00
2023-02-27T00:43:10.846Z,3.00
2023-02-27T00:45:39.242Z,2.37
2023-02-27T00:48:07.659Z,3.27
2023-02-27T00:50:36.059Z,2.20
2023-02-27T00:53:04.471Z,2.10
2023-02-27T00:55:34.256Z,2.83
2023-02-27T00:58:02.667Z,2.30
2023-02-27T01:00:31.161Z,2.80
2023-02-27T01:02:59.607Z,2.40
2023-02-27T01:05:27.996Z,4.17
2023-02-27T01:07:56.448Z,2.20
2023-02-27T01:10:24.882Z,2.50
2023-02-27T01:12:54.651Z,2.13
2023-02-27T01:15:23.027Z,2.20
2023-02-27T01:17:51.583Z,2.10
2023-02-27T01:20:20.075Z,2.30
2023-02-27T01:22:48.492Z,2.00
2023-02-27T01:25:16.924Z,2.37
2023-02-27T01:27:45.457Z,2.40
2023-02-27T01:30:16.818Z,2.40
2023-02-27T01:32:45.380Z,2.03
2023-02-27T01:35:14.175Z,2.47
2023-02-27T01:37:42.636Z,2.57
2023-02-27T01:40:11.599Z,2.33
2023-02-27T01:42:40.035Z,2.50
2023-02-27T01:45:19.101Z,2.50
2023-02-27T01:47:51.474Z,2.20
2023-02-27T01:50:20.396Z,2.60
2023-02-27T01:52:51.857Z,2.47
2023-02-27T01:55:21.760Z,2.83
2023-02-27T01:57:51.089Z,3.63
2023-02-27T02:00:20.246Z,2.60
2023-02-27T02:02:52.243Z,2.60
2023-02-27T02:05:22.765Z,2.60
2023-02-27T02:07:51.626Z,2.67
2023-02-27T02:10:21.329Z,2.97
2023-02-27T02:12:49.773Z,2.43
2023-02-27T02:15:18.362Z,2.57
2023-02-27T02:17:51.135Z,2.50
2023-02-27T02:20:37.396Z,2.40
2023-02-27T02:23:18.667Z,4.17
2023-02-27T02:26:05.869Z,2.50
2023-02-27T02:28:46.344Z,2.60
2023-02-27T02:31:30.541Z,4.67
2023-02-27T02:34:13.438Z,3.90
2023-02-27T02:37:00.483Z,4.20
2023-02-27T02:39:49.798Z,3.17
2023-02-27T02:42:23.688Z,10.03
2023-02-27T02:44:56.236Z,3.77
2023-02-27T02:47:26.614Z,3.20
2023-02-27T02:49:58.736Z,3.40
2023-02-27T02:52:31.626Z,3.13
2023-02-27T02:55:03.675Z,3.40
2023-02-27T02:57:35.084Z,2.93
2023-02-27T03:00:07.200Z,2.50
2023-02-27T03:02:37.631Z,2.80
2023-02-27T03:05:09.009Z,2.80
2023-02-27T03:07:40.671Z,2.63
2023-02-27T03:10:11.034Z,2.60
2023-02-27T03:12:41.845Z,3.33
2023-02-27T03:15:13.299Z,3.60
2023-02-27T03:17:43.783Z,2.73
2023-02-27T03:20:14.347Z,2.50
2023-02-27T03:22:44.598Z,2.90
2023-02-27T03:25:14.285Z,3.67
2023-02-27T03:27:45.876Z,2.97
2023-02-27T03:30:15.262Z,2.90
2023-02-27T03:32:47.634Z,2.77
2023-02-27T03:35:16.364Z,3.00
2023-02-27T03:37:49.172Z,3.13
2023-02-27T03:40:26.088Z,3.30
2023-02-27T03:43:01.020Z,2.90
2023-02-27T03:45:32.829Z,2.70
2023-02-27T03:48:01.352Z,2.70
2023-02-27T03:50:29.800Z,2.77
2023-02-27T03:52:58.723Z,3.03
2023-02-27T03:55:29.246Z,2.60
2023-02-27T03:57:59.112Z,2.93
2023-02-27T04:00:28.020Z,3.23
2023-02-27T04:02:57.866Z,3.20
2023-02-27T04:05:26.409Z,2.53
2023-02-27T04:08:03.919Z,2.97
2023-02-27T04:10:41.380Z,3.10
2023-02-27T04:13:23.183Z,2.57
2023-02-27T04:16:00.846Z,2.70
2023-02-27T04:18:36.990Z,2.77
2023-02-27T04:21:09.387Z,3.00
2023-02-27T04:23:41.134Z,3.67
2023-02-27T04:26:19.829Z,2.83
2023-02-27T04:28:50.849Z,3.27
2023-02-27T04:31:22.736Z,3.13
2023-02-27T04:33:53.003Z,2.83
2023-02-27T04:36:25.337Z,2.93
2023-02-27T04:38:57.579Z,3.13
2023-02-27T04:41:29.003Z,3.33
2023-02-27T04:43:59.376Z,3.23
2023-02-27T04:46:29.872Z,2.73
2023-02-27T04:49:01.352Z,3.63
2023-02-27T04:51:33.913Z,4.00
2023-02-27T04:54:03.659Z,3.13
2023-02-27T04:56:33.892Z,3.17
2023-02-27T04:59:05.499Z,6.33
2023-02-27T05:01:37.460Z,3.67
2023-02-27T05:04:07.347Z,6.80
2023-02-27T05:06:37.507Z,4.00
2023-02-27T05:09:10.784Z,4.27
2023-02-27T05:11:41.598Z,4.07
2023-02-27T05:14:13.691Z,4.47
2023-02-27T05:16:45.730Z,3.67
2023-02-27T05:19:15.099Z,4.10
2023-02-27T05:21:45.338Z,5.77
2023-02-27T05:24:16.447Z,4.40
2023-02-27T05:26:53.652Z,3.93
2023-02-27T05:29:26.058Z,3.70
2023-02-27T05:31:57.136Z,9.90
2023-02-27T05:34:27.739Z,8.33
2023-02-27T05:36:59.575Z,5.27
2023-02-27T05:39:30.797Z,9.77
2023-02-27T05:42:00.663Z,9.27
2023-02-27T05:44:31.702Z,4.73
2023-02-27T05:47:01.808Z,3.53
2023-02-27T05:49:32.965Z,4.73
2023-02-27T05:52:03.496Z,6.63
2023-02-27T05:54:36.198Z,5.03
2023-02-27T05:57:06.414Z,4.27
2023-02-27T05:59:39.115Z,11.17
2023-02-27T06:02:07.583Z,10.23
2023-02-27T06:04:36.054Z,7.93
2023-02-27T06:07:08.439Z,5.43
2023-02-27T06:09:37.046Z,9.20
2023-02-27T06:12:05.479Z,11.20
2023-02-27T06:14:33.911Z,7.17
2023-02-27T06:17:05.026Z,14.90
2023-02-27T06:19:33.513Z,9.67
2023-02-27T06:22:01.947Z,6.20
2023-02-27T06:24:30.613Z,12.87
2023-02-27T06:26:59.020Z,7.40
2023-02-27T06:29:27.476Z,12.83
2023-02-27T06:31:55.938Z,3.30
2023-02-27T06:34:25.733Z,4.83
2023-02-27T06:36:54.297Z,11.53
2023-02-27T06:39:22.811Z,7.30
2023-02-27T06:41:51.218Z,7.30
2023-02-27T06:44:20.077Z,4.50
2023-02-27T06:46:48.476Z,8.23
2023-02-27T06:49:17.038Z,5.07
2023-02-27T06:51:46.811Z,4.63
2023-02-27T06:54:15.675Z,6.23
2023-02-27T06:56:44.039Z,4.83
2023-02-27T06:59:12.440Z,5.23
2023-02-27T07:01:41.073Z,3.53
2023-02-27T07:04:10.742Z,3.33
2023-02-27T07:07:34.045Z,4.53
2023-02-27T07:09:29.157Z,7.23
2023-02-27T07:11:57.540Z,4.90
2023-02-27T07:14:26.147Z,5.40
2023-02-27T07:16:54.993Z,6.97
2023-02-27T07:19:23.715Z,5.77
2023-02-27T07:21:52.307Z,4.67
2023-02-27T07:24:21.296Z,5.73
2023-02-27T07:26:51.087Z,5.93
2023-02-27T07:29:19.506Z,4.67
2023-02-27T07:31:47.958Z,10.00
2023-02-27T07:34:16.422Z,8.43
2023-02-27T07:36:44.831Z,6.53
2023-02-27T07:39:13.448Z,7.47
2023-02-27T07:41:42.122Z,5.67
2023-02-27T07:44:13.579Z,6.53
2023-02-27T07:46:41.993Z,4.53
2023-02-27T07:49:10.452Z,4.37
2023-02-27T07:51:38.858Z,3.87
2023-02-27T07:54:07.314Z,3.90
2023-02-27T07:56:35.729Z,4.90
2023-02-27T07:59:04.217Z,5.23
2023-02-27T08:01:33.979Z,3.57
2023-02-27T08:04:02.432Z,3.80
2023-02-27T08:06:30.846Z,6.90
2023-02-27T08:08:59.219Z,4.23
2023-02-27T08:11:28.055Z,5.13
2023-02-27T08:14:00.459Z,3.57
2023-02-27T08:16:30.811Z,4.00
2023-02-27T08:19:01.297Z,3.87
2023-02-27T08:21:30.404Z,4.13
2023-02-27T08:23:59.009Z,4.30
2023-02-27T08:26:27.889Z,5.93
2023-02-27T08:28:56.526Z,4.43
2023-02-27T08:31:25.295Z,5.13
2023-02-27T08:34:01.083Z,2.70
2023-02-27T08:36:38.921Z,6.27
2023-02-27T08:39:07.433Z,4.23
2023-02-27T08:41:36.089Z,4.87
2023-02-27T08:44:04.595Z,5.00
2023-02-27T08:46:33.170Z,6.03
2023-02-27T08:49:01.613Z,5.87
2023-02-27T08:51:30.322Z,17.23
2023-02-27T08:54:00.270Z,9.60
2023-02-27T08:56:29.090Z,11.07
2023-02-27T08:58:57.892Z,17.57
2023-02-27T09:01:28.464Z,33.47
2023-02-27T09:03:57.744Z,33.43
2023-02-27T09:06:26.554Z,23.73
2023-02-27T09:08:55.113Z,33.10
2023-02-27T09:11:25.214Z,18.73
2023-02-27T09:13:53.924Z,25.10
2023-02-27T09:16:22.736Z,21.00
2023-02-27T09:18:51.210Z,21.83
2023-02-27T09:21:20.460Z,9.13
2023-02-27T09:23:48.948Z,12.20
2023-02-27T09:26:17.573Z,8.17
2023-02-27T09:28:47.362Z,7.33
2023-02-27T09:31:16.418Z,5.33
2023-02-27T09:33:45.505Z,6.60
2023-02-27T09:36:14.303Z,5.83
2023-02-27T09:38:42.956Z,8.47
2023-02-27T09:41:25.475Z,13.37
2023-02-27T09:43:55.423Z,13.00
2023-02-27T09:46:25.553Z,24.17
2023-02-27T09:48:55.308Z,28.97
2023-02-27T09:51:24.008Z,36.27
2023-02-27T09:53:54.034Z,20.57
2023-02-27T09:56:24.672Z,26.47
2023-02-27T09:58:59.877Z,28.33
2023-02-27T10:01:30.647Z,25.40
2023-02-27T10:04:11.135Z,35.00
2023-02-27T10:06:43.914Z,47.23
2023-02-27T10:09:20.890Z,49.30
2023-02-27T10:11:54.285Z,51.07
2023-02-27T10:14:29.569Z,33.13
2023-02-27T10:16:58.651Z,22.20
2023-02-27T10:19:29.046Z,20.90
2023-02-27T10:21:58.593Z,45.07
2023-02-27T10:24:29.412Z,44.47
2023-02-27T10:26:58.973Z,32.43
2023-02-27T10:29:32.080Z,36.77
2023-02-27T10:32:02.780Z,56.17
2023-02-27T10:34:32.262Z,50.37
2023-02-27T10:37:02.584Z,51.30
2023-02-27T10:39:32.156Z,57.10
2023-02-27T10:42:05.068Z,52.20
2023-02-27T10:44:34.857Z,37.87
2023-02-27T10:47:03.269Z,37.50
2023-02-27T10:49:33.633Z,53.33
2023-02-27T10:52:10.679Z,35.43
2023-02-27T10:54:39.855Z,33.07
2023-02-27T10:57:19.049Z,32.90
2023-02-27T10:59:53.660Z,32.27
2023-02-27T11:02:23.696Z,41.87
2023-02-27T11:04:53.931Z,32.37
2023-02-27T11:07:28.878Z,37.10
2023-02-27T11:10:01.199Z,42.77
2023-02-27T11:12:31.042Z,41.70
2023-02-27T11:15:02.390Z,37.50
2023-02-27T11:17:32.437Z,36.90
2023-02-27T11:20:01.402Z,47.57
2023-02-27T11:22:31.055Z,46.10
2023-02-27T11:25:18.620Z,50.40
2023-02-27T11:27:47.695Z,55.93
2023-02-27T11:30:24.922Z,38.93
2023-02-27T11:32:53.912Z,31.00
2023-02-27T11:35:24.270Z,24.30
2023-02-27T11:37:53.403Z,36.70
2023-02-27T11:40:23.046Z,18.73
2023-02-27T11:42:52.829Z,23.17
2023-02-27T11:46:04.586Z,29.73
2023-02-27T11:48:21.102Z,22.30
2023-02-27T11:51:04.439Z,25.03
2023-02-27T11:53:47.686Z,27.03
2023-02-27T11:56:18.534Z,16.97
2023-02-27T11:58:50.217Z,25.87
2023-02-27T12:01:23.673Z,32.50
2023-02-27T12:03:56.125Z,36.37
2023-02-27T12:06:27.262Z,31.77
2023-02-27T12:08:57.695Z,37.20
2023-02-27T12:11:29.290Z,32.20
2023-02-27T12:14:02.502Z,25.27
2023-02-27T12:16:36.505Z,28.47
2023-02-27T12:19:12.629Z,26.90
2023-02-27T12:21:43.707Z,17.27
2023-02-27T12:24:17.582Z,25.17
2023-02-27T12:26:47.096Z,24.07
2023-02-27T12:29:20.403Z,29.90
2023-02-27T12:31:52.274Z,21.80
2023-02-27T12:34:26.013Z,35.50
2023-02-27T12:36:54.857Z,42.03
2023-02-27T12:39:24.623Z,36.73
2023-02-27T12:42:07.861Z,32.60
2023-02-27T12:44:43.011Z,21.27
2023-02-27T12:47:21.241Z,18.60
2023-02-27T12:49:51.619Z,18.10
2023-02-27T12:52:25.641Z,12.57
2023-02-27T12:54:58.465Z,15.30
2023-02-27T12:57:32.050Z,15.90
2023-02-27T13:00:08.390Z,20.87
2023-02-27T13:02:51.692Z,25.80
2023-02-27T13:05:37.366Z,18.73
2023-02-27T13:08:10.648Z,14.47
2023-02-27T13:10:42.572Z,17.40
2023-02-27T13:13:16.137Z,15.43
2023-02-27T13:15:48.648Z,19.47
2023-02-27T13:18:30.598Z,23.93
2023-02-27T13:21:03.328Z,32.47
2023-02-27T13:23:35.495Z,19.83
2023-02-27T13:26:06.737Z,23.97
2023-02-27T13:28:36.227Z,33.10
2023-02-27T13:31:08.447Z,27.57
2023-02-27T13:33:40.340Z,34.20
2023-02-27T13:36:15.596Z,40.60
2023-02-27T13:38:44.818Z,40.40
2023-02-27T13:41:38.179Z,26.23
2023-02-27T13:44:26.974Z,44.60
2023-02-27T13:46:55.420Z,32.97
2023-02-27T13:49:29.651Z,44.50
2023-02-27T13:52:02.152Z,44.60
2023-02-27T13:54:33.067Z,30.53
2023-02-27T13:57:09.370Z,29.07
2023-02-27T13:59:39.638Z,24.60
2023-02-27T14:02:25.591Z,28.67
2023-02-27T14:04:55.241Z,23.57
2023-02-27T14:07:26.905Z,29.17
2023-02-27T14:10:01.901Z,22.83
2023-02-27T14:12:44.163Z,30.83
2023-02-27T14:15:28.211Z,25.63
2023-02-27T14:18:09.865Z,28.27
2023-02-27T14:20:51.289Z,24.17
2023-02-27T14:23:26.632Z,26.83
2023-02-27T14:25:56.122Z,35.10
2023-02-27T14:28:27.710Z,37.57
2023-02-27T14:30:58.241Z,27.13
2023-02-27T14:33:39.613Z,37.80
2023-02-27T14:36:10.506Z,27.20
2023-02-27T14:38:40.441Z,42.33
2023-02-27T14:41:13.472Z,40.57
2023-02-27T14:43:43.221Z,25.10
2023-02-27T14:46:17.944Z,20.90
2023-02-27T14:48:47.183Z,27.27
2023-02-27T14:51:17.591Z,31.27
2023-02-27T14:53:47.423Z,24.90
2023-02-27T14:56:20.251Z,20.00
2023-02-27T14:59:03.392Z,23.73
2023-02-27T15:01:36.455Z,30.13
2023-02-27T15:04:06.343Z,54.60
2023-02-27T15:06:38.879Z,51.03
2023-02-27T15:09:09.103Z,33.90
2023-02-27T15:11:44.750Z,36.90
2023-02-27T15:14:20.567Z,24.97
2023-02-27T15:16:49.111Z,25.50
2023-02-27T15:19:18.722Z,46.43
2023-02-27T15:21:49.816Z,34.33
2023-02-27T15:24:31.315Z,28.47
2023-02-27T15:27:02.667Z,24.73
2023-02-27T15:29:34.422Z,24.97
2023-02-27T15:32:03.332Z,28.23
2023-02-27T15:34:33.916Z,23.87
2023-02-27T15:37:02.909Z,23.03
2023-02-27T15:39:34.499Z,27.57
2023-02-27T15:42:03.692Z,34.50
2023-02-27T15:44:33.778Z,38.70
2023-02-27T15:47:02.449Z,31.83
2023-02-27T15:49:30.872Z,39.00
2023-02-27T15:52:02.944Z,30.30
2023-02-27T15:54:35.674Z,39.97
2023-02-27T15:57:05.197Z,43.77
2023-02-27T15:59:35.885Z,35.03
2023-02-27T16:02:04.825Z,44.87
2023-02-27T16:04:34.743Z,68.27
2023-02-27T16:07:04.594Z,57.50
2023-02-27T16:09:34.520Z,39.50
2023-02-27T16:12:21.087Z,41.93
2023-02-27T16:14:49.472Z,31.23
2023-02-27T16:17:30.844Z,43.83
2023-02-27T16:20:01.964Z,33.03
2023-02-27T16:22:30.849Z,41.23
2023-02-27T16:25:10.782Z,42.30
2023-02-27T16:27:40.825Z,43.33
2023-02-27T16:30:12.064Z,43.57
2023-02-27T16:32:43.982Z,48.83
2023-02-27T16:35:18.139Z,55.77
2023-02-27T16:37:47.951Z,32.33
2023-02-27T16:40:17.897Z,23.57
2023-02-27T16:42:48.058Z,22.30
2023-02-27T16:45:17.536Z,30.17
2023-02-27T16:47:46.204Z,38.17
2023-02-27T16:50:16.987Z,31.67
2023-02-27T16:52:45.402Z,40.50
2023-02-27T16:55:13.806Z,27.90
2023-02-27T16:57:42.230Z,28.97
2023-02-27T17:00:15.147Z,32.03
2023-02-27T17:02:43.942Z,36.07
2023-02-27T17:05:13.622Z,43.70
2023-02-27T17:07:42.004Z,41.00
2023-02-27T17:10:11.187Z,35.60
2023-02-27T17:12:39.593Z,30.93
2023-02-27T17:15:08.476Z,35.53
2023-02-27T17:17:38.266Z,38.50
2023-02-27T17:20:07.497Z,30.67
2023-02-27T17:22:37.049Z,31.57
2023-02-27T17:25:05.616Z,28.60
2023-02-27T17:27:34.125Z,17.83
2023-02-27T17:30:02.654Z,22.00
2023-02-27T17:32:31.100Z,35.00
2023-02-27T17:35:00.910Z,36.70
2023-02-27T17:37:29.376Z,19.93
2023-02-27T17:39:57.867Z,26.30
2023-02-27T17:42:26.239Z,24.40
2023-02-27T17:44:54.632Z,28.33
2023-02-27T17:47:23.150Z,22.50
2023-02-27T17:49:51.575Z,14.83
2023-02-27T17:52:21.392Z,13.00
2023-02-27T17:54:50.041Z,20.90
2023-02-27T17:57:18.608Z,20.67
2023-02-27T17:59:47.021Z,9.17
2023-02-27T18:02:16.190Z,15.37
2023-02-27T18:04:44.717Z,18.00
2023-02-27T18:07:13.132Z,13.80
2023-02-27T18:09:46.026Z,13.00
2023-02-27T18:12:14.461Z,32.07
2023-02-27T18:14:42.851Z,24.50
2023-02-27T18:17:12.543Z,20.53
2023-02-27T18:19:41.628Z,21.97
2023-02-27T18:22:10.088Z,20.27
2023-02-27T18:24:38.775Z,18.40
2023-02-27T18:27:09.462Z,16.03
2023-02-27T18:29:37.853Z,19.07
2023-02-27T18:32:06.585Z,24.70
2023-02-27T18:34:35.010Z,19.63
2023-02-27T18:37:03.436Z,19.37
2023-02-27T18:39:31.863Z,19.23
2023-02-27T18:42:00.266Z,17.87
2023-02-27T18:44:30.093Z,19.27
2023-02-27T18:46:58.557Z,18.37
2023-02-27T18:49:26.952Z,27.47
2023-02-27T18:51:55.393Z,20.33
2023-02-27T18:54:23.817Z,32.27
2023-02-27T18:56:52.355Z,25.77
2023-02-27T18:59:20.744Z,18.43
2023-02-27T19:01:50.564Z,17.40
2023-02-27T19:04:18.979Z,15.73
2023-02-27T19:06:47.389Z,27.43
2023-02-27T19:09:17.098Z,24.47
2023-02-27T19:11:46.817Z,18.03
2023-02-27T19:14:16.021Z,16.03
2023-02-27T19:16:46.182Z,22.03
2023-02-27T19:19:17.030Z,22.60
2023-02-27T19:21:47.281Z,14.87
2023-02-27T19:24:16.745Z,18.03
2023-02-27T19:26:45.177Z,26.47
2023-02-27T19:29:13.579Z,19.97
2023-02-27T19:31:42.335Z,19.93
2023-02-27T19:34:10.752Z,20.80
2023-02-27T19:36:41.367Z,16.43
2023-02-27T19:39:09.882Z,21.83
2023-02-27T19:41:38.529Z,18.57
2023-02-27T19:44:07.731Z,19.90
2023-02-27T19:46:36.496Z,20.83
2023-02-27T19:49:06.676Z,19.27
2023-02-27T19:51:35.334Z,26.10
2023-02-27T19:54:05.141Z,18.70
2023-02-27T19:56:33.561Z,17.03
2023-02-27T19:59:02.235Z,25.00
2023-02-27T20:01:32.533Z,18.27
2023-02-27T20:04:01.363Z,15.43
2023-02-27T20:06:31.236Z,16.50
2023-02-27T20:09:00.174Z,23.87
2023-02-27T20:11:32.703Z,26.00
2023-02-27T20:14:01.384Z,25.90
2023-02-27T20:16:34.439Z,21.03
2023-02-27T20:19:03.656Z,23.00
2023-02-27T20:21:33.106Z,27.07
2023-02-27T20:24:02.292Z,34.30
2023-02-27T20:26:33.490Z,25.47
2023-02-27T20:29:03.393Z,14.83
2023-02-27T20:31:32.880Z,14.67
2023-02-27T20:34:01.727Z,21.23
2023-02-27T20:36:30.726Z,15.97
2023-02-27T20:38:59.124Z,17.47
2023-02-27T20:41:29.629Z,22.67
2023-02-27T20:43:59.733Z,24.17
2023-02-27T20:46:28.991Z,23.27
2023-02-27T20:48:59.419Z,21.60
2023-02-27T20:51:29.047Z,16.23
2023-02-27T20:53:58.768Z,21.97
2023-02-27T20:56:28.470Z,24.80
2023-02-27T20:58:58.001Z,18.97
2023-02-27T21:01:28.633Z,20.87
2023-02-27T21:03:58.700Z,12.03
2023-02-27T21:06:27.686Z,19.67
2023-02-27T21:08:57.290Z,10.30
2023-02-27T21:11:27.290Z,16.87
2023-02-27T21:13:56.236Z,11.93
2023-02-27T21:16:25.656Z,15.47
2023-02-27T21:18:56.755Z,17.97
2023-02-27T21:21:26.242Z,13.37
2023-02-27T21:23:54.995Z,14.10
2023-02-27T21:26:24.793Z,15.47
2023-02-27T21:28:53.545Z,18.80
2023-02-27T21:31:23.147Z,16.87
2023-02-27T21:33:52.332Z,25.60
2023-02-27T21:36:25.863Z,20.30
2023-02-27T21:38:56.733Z,17.20
2023-02-27T21:41:25.162Z,16.90
2023-02-27T21:43:53.555Z,22.23
2023-02-27T21:46:22.118Z,19.23
2023-02-27T21:48:50.590Z,14.90
2023-02-27T21:51:33.112Z,25.53
2023-02-27T21:54:09.163Z,16.43
2023-02-27T21:56:37.661Z,19.40
2023-02-27T21:59:06.108Z,17.17
2023-02-27T22:01:35.883Z,17.07
2023-02-27T22:04:04.400Z,18.63
2023-02-27T22:06:33.371Z,26.53
2023-02-27T22:09:04.460Z,13.70
2023-02-27T22:11:35.424Z,20.53
2023-02-27T22:14:04.259Z,26.93
2023-02-27T22:16:32.706Z,18.10
2023-02-27T22:19:01.263Z,25.00
2023-02-27T22:21:29.987Z,19.63
2023-02-27T22:23:58.976Z,17.93
2023-02-27T22:26:30.848Z,23.10
2023-02-27T22:29:01.272Z,19.47
2023-02-27T22:31:30.892Z,21.13
2023-02-27T22:34:01.161Z,21.47
2023-02-27T22:36:30.530Z,19.83
2023-02-27T22:38:59.223Z,20.10
2023-02-27T22:41:29.316Z,26.67
2023-02-27T22:43:58.359Z,12.67
2023-02-27T22:46:29.154Z,20.37
2023-02-27T22:48:57.731Z,20.87
2023-02-27T22:51:27.916Z,13.60
2023-02-27T22:53:57.026Z,17.93
2023-02-27T22:56:25.536Z,18.43
2023-02-27T22:58:53.973Z,19.87
2023-02-27T23:01:23.596Z,15.67
2023-02-27T23:03:54.217Z,13.67
2023-02-27T23:06:25.183Z,11.83
2023-02-27T23:08:53.929Z,13.77
2023-02-27T23:11:22.563Z,13.50
2023-02-27T23:13:51.428Z,13.77
2023-02-27T23:16:20.208Z,14.13
2023-02-27T23:18:49.897Z,13.50
2023-02-27T23:21:21.081Z,15.63
2023-02-27T23:23:49.901Z,16.30
2023-02-27T23:26:18.302Z,22.53
2023-02-27T23:28:46.748Z,13.37
2023-02-27T23:31:15.177Z,24.63
2023-02-27T23:33:43.571Z,22.20
2023-02-27T23:36:12.098Z,19.77
2023-02-27T23:38:41.916Z,18.67
2023-02-27T23:41:12.964Z,23.43
2023-02-27T23:43:58.858Z,19.00
2023-02-27T23:46:30.321Z,22.37
2023-02-27T23:48:59.294Z,18.80
2023-02-27T23:51:30.152Z,16.27
2023-02-27T23:54:00.373Z,21.33
2023-02-27T23:56:29.675Z,15.93
2023-02-27T23:58:59.016Z,13.37
